Terminal Aerodrome Forecast
Issued by NWS St Louis, MO

Home | Current Version | Previous Version | Text Only | Print | Product List | Glossary On
Versions: 1 2 3 4 5 6 7 8 9 10 11 12 13 14 15 16 17 18 19
035
FTUS43 KLSX 202326
TAFSTL
TAF
KSTL 202326Z 2100/2206 30012G18KT P6SM BKN040
     FM210200 32009KT P6SM SCT250
     FM211000 35005KT P6SM BKN250
     FM211800 03006KT P6SM VCSH OVC070
     FM220000 05007KT P6SM -RA OVC050=

USA.gov is the U.S. government's official web portal to all federal, state and local government web resources and services.